createdAt,value
2019-01-15T00:01:53.533Z,99811.16
2019-01-15T00:04:24.595Z,99815.28
2019-01-15T00:06:55.022Z,99813.39
2019-01-15T00:09:25.472Z,99816.98
2019-01-15T00:11:56.233Z,99815.28
2019-01-15T00:14:26.742Z,99816.41
2019-01-15T00:16:57.224Z,99816.17
2019-01-15T00:19:28.153Z,99819.25
2019-01-15T00:21:58.876Z,99813.77
2019-01-15T00:24:29.332Z,99817.09
2019-01-15T00:27:00.049Z,99818.84
2019-01-15T00:29:30.537Z,99812.88
2019-01-15T00:32:00.966Z,99811.24
2019-01-15T00:34:31.744Z,99806.91
2019-01-15T00:37:02.183Z,99808.63
2019-01-15T00:39:32.907Z,99808.63
2019-01-15T00:42:03.373Z,99808.00
2019-01-15T00:44:34.394Z,99810.52
2019-01-15T00:47:05.162Z,99819.05
2019-01-15T00:49:35.957Z,99823.38
2019-01-15T00:52:06.390Z,99821.45
2019-01-15T00:54:37.218Z,99821.31
2019-01-15T00:57:07.661Z,99819.48
2019-01-15T00:59:38.427Z,99818.98
2019-01-15T01:02:08.857Z,99817.58
2019-01-15T01:04:39.355Z,99824.01
2019-01-15T01:07:09.988Z,99829.77
2019-01-15T01:09:40.715Z,99824.23
2019-01-15T01:12:11.212Z,99822.09
2019-01-15T01:14:42.236Z,99819.97
2019-01-15T01:17:12.958Z,99825.19
2019-01-15T01:19:43.702Z,99817.41
2019-01-15T01:22:14.424Z,99817.86
2019-01-15T01:24:44.904Z,99815.42
2019-01-15T01:27:15.334Z,99817.08
2019-01-15T01:29:45.790Z,99821.72
2019-01-15T01:32:16.418Z,99819.42
2019-01-15T01:34:46.856Z,99824.52
2019-01-15T01:37:17.330Z,99829.38
2019-01-15T01:39:47.761Z,99830.53
2019-01-15T01:42:18.193Z,99829.22
2019-01-15T01:44:48.649Z,99834.45
2019-01-15T01:47:19.078Z,99833.59
2019-01-15T01:49:49.559Z,99845.05
2019-01-15T01:52:19.993Z,99848.25
2019-01-15T01:54:50.428Z,99851.63
2019-01-15T01:57:20.888Z,99850.69
2019-01-15T01:59:51.691Z,99859.06
2019-01-15T02:02:22.625Z,99857.92
2019-01-15T02:04:53.341Z,99860.72
2019-01-15T02:07:23.766Z,99857.10
2019-01-15T02:09:54.390Z,99860.64
2019-01-15T02:12:24.820Z,99862.22
2019-01-15T02:14:55.589Z,99865.20
2019-01-15T02:17:26.021Z,99856.11
2019-01-15T02:19:56.548Z,99855.89
2019-01-15T02:22:27.670Z,99855.32
2019-01-15T02:24:58.103Z,99855.52
2019-01-15T02:27:29.553Z,99850.98
2019-01-15T02:30:00.009Z,99846.16
2019-01-15T02:32:30.730Z,99842.84
2019-01-15T02:35:01.196Z,99850.38
2019-01-15T02:37:31.738Z,99842.58
2019-01-15T02:40:02.174Z,99847.97
2019-01-15T02:42:32.611Z,99839.80
2019-01-15T02:45:03.037Z,99840.02
2019-01-15T02:47:33.498Z,99837.50
2019-01-15T02:50:04.364Z,99838.55
2019-01-15T02:52:34.841Z,99845.49
2019-01-15T02:55:05.389Z,99840.02
2019-01-15T02:57:35.818Z,99837.39
2019-01-15T03:00:13.518Z,99838.22
2019-01-15T03:02:43.941Z,99837.53
2019-01-15T03:05:14.934Z,99829.88
2019-01-15T03:07:47.271Z,99831.72
2019-01-15T03:10:18.808Z,99829.28
2019-01-15T03:12:55.357Z,99826.87
2019-01-15T03:15:24.743Z,99836.77
2019-01-15T03:17:55.339Z,99827.24
2019-01-15T03:20:25.764Z,99825.92
2019-01-15T03:22:56.194Z,99821.62
2019-01-15T03:25:26.640Z,99830.40
2019-01-15T03:27:57.261Z,99828.45
2019-01-15T03:30:27.762Z,99823.43
2019-01-15T03:32:58.436Z,99820.94
2019-01-15T03:35:29.229Z,99819.84
2019-01-15T03:37:59.684Z,99822.74
2019-01-15T03:40:30.109Z,99822.94
2019-01-15T03:43:03.992Z,99825.91
2019-01-15T03:45:32.709Z,99814.97
2019-01-15T03:48:03.206Z,99810.16
2019-01-15T03:50:33.930Z,99814.57
2019-01-15T03:53:04.389Z,99818.30
2019-01-15T03:55:34.861Z,99816.49
2019-01-15T03:58:05.673Z,99808.95
2019-01-15T04:00:36.105Z,99811.81
2019-01-15T04:03:06.595Z,99812.45
2019-01-15T04:05:36.991Z,99808.75
2019-01-15T04:08:07.478Z,99815.34
2019-01-15T04:10:37.897Z,99820.67
2019-01-15T04:13:11.455Z,99818.67
2019-01-15T04:15:40.565Z,99811.81
2019-01-15T04:18:10.993Z,99814.57
2019-01-15T04:20:41.838Z,99817.06
2019-01-15T04:23:12.273Z,99822.59
2019-01-15T04:25:42.778Z,99821.28
2019-01-15T04:28:13.258Z,99822.69
2019-01-15T04:30:43.682Z,99818.41
2019-01-15T04:33:14.177Z,99817.06
2019-01-15T04:35:44.591Z,99812.36
2019-01-15T04:38:15.013Z,99801.43
2019-01-15T04:40:45.463Z,99797.33
2019-01-15T04:43:19.932Z,99806.98
2019-01-15T04:45:48.359Z,99806.04
2019-01-15T04:48:18.783Z,99804.87
2019-01-15T04:50:49.212Z,99814.10
2019-01-15T04:53:19.687Z,99806.98
2019-01-15T04:55:50.111Z,99808.48
2019-01-15T04:58:20.589Z,99800.16
2019-01-15T05:00:51.024Z,99802.23
2019-01-15T05:03:21.440Z,99796.95
2019-01-15T05:05:51.895Z,99799.39
2019-01-15T05:08:22.331Z,99797.33
2019-01-15T05:10:53.083Z,99799.14
2019-01-15T05:13:27.508Z,99799.77
2019-01-15T05:15:55.935Z,99805.05
2019-01-15T05:18:26.986Z,99798.39
2019-01-15T05:20:57.407Z,99794.50
2019-01-15T05:23:28.246Z,99785.72
2019-01-15T05:25:58.675Z,99792.66
2019-01-15T05:28:29.381Z,99796.76
2019-01-15T05:31:00.157Z,99779.73
2019-01-15T05:33:30.580Z,99784.22
2019-01-15T05:36:01.347Z,99776.66
2019-01-15T05:38:31.852Z,99789.04
2019-01-15T05:41:02.648Z,99777.52
2019-01-15T05:43:35.798Z,99763.72
2019-01-15T05:46:05.229Z,99770.38
2019-01-15T05:48:37.586Z,99765.22
2019-01-15T05:51:33.177Z,99762.92
2019-01-15T05:54:03.812Z,99759.11
2019-01-15T05:56:34.242Z,99760.25
2019-01-15T05:59:06.505Z,99762.83
2019-01-15T06:01:37.034Z,99754.42
2019-01-15T06:04:07.468Z,99756.83
2019-01-15T06:06:37.921Z,99747.34
2019-01-15T06:09:10.536Z,99746.88
2019-01-15T06:11:41.008Z,99750.60
2019-01-15T06:14:11.445Z,99753.63
2019-01-15T06:16:41.872Z,99747.41
2019-01-15T06:19:12.332Z,99752.45
2019-01-15T06:21:42.751Z,99760.16
2019-01-15T06:24:13.215Z,99743.98
2019-01-15T06:26:44.070Z,99745.55
2019-01-15T06:29:15.297Z,99751.45
2019-01-15T06:31:46.095Z,99730.70
2019-01-15T06:34:16.607Z,99726.74
2019-01-15T06:36:47.326Z,99726.25
2019-01-15T06:39:17.772Z,99722.41
2019-01-15T06:41:48.196Z,99722.16
2019-01-15T06:44:18.684Z,99721.71
2019-01-15T06:46:49.114Z,99709.59
2019-01-15T06:49:19.828Z,99710.55
2019-01-15T06:51:50.279Z,99707.83
2019-01-15T06:54:20.974Z,99689.55
2019-01-15T06:56:52.305Z,99699.42
2019-01-15T06:59:22.725Z,99699.42
2019-01-15T07:01:53.441Z,99701.11
2019-01-15T07:04:23.886Z,99705.44
2019-01-15T07:06:54.601Z,99702.80
2019-01-15T07:09:25.085Z,99713.13
2019-01-15T07:11:55.522Z,99714.70
2019-01-15T07:14:25.946Z,99713.73
2019-01-15T07:16:56.705Z,99711.22
2019-01-15T07:19:27.134Z,99716.26
2019-01-15T07:21:57.681Z,99736.33
2019-01-15T07:24:28.109Z,99708.38
2019-01-15T07:26:58.807Z,99700.08
2019-01-15T07:29:29.416Z,99701.15
2019-01-15T07:31:59.846Z,99701.98
2019-01-15T07:34:30.297Z,99698.39
2019-01-15T07:37:00.728Z,99703.80
2019-01-15T07:39:31.190Z,99697.31
2019-01-15T07:42:01.617Z,99725.88
2019-01-15T07:44:32.091Z,99728.19
2019-01-15T07:47:02.528Z,99731.41
2019-01-15T07:49:32.946Z,99724.56
2019-01-15T07:52:03.397Z,99725.67
2019-01-15T07:54:33.828Z,99725.42
2019-01-15T07:57:04.309Z,99723.98
2019-01-15T07:59:34.786Z,99713.78
2019-01-15T08:02:05.778Z,99727.23
2019-01-15T08:04:36.232Z,99726.37
2019-01-15T08:07:06.669Z,99729.27
2019-01-15T08:09:37.148Z,99727.61
2019-01-15T08:12:07.577Z,99721.46
2019-01-15T08:14:38.305Z,99730.59
2019-01-15T08:17:08.771Z,99713.45
2019-01-15T08:19:39.206Z,99712.00
2019-01-15T08:22:09.953Z,99721.25
2019-01-15T08:24:40.394Z,99707.80
2019-01-15T08:27:10.826Z,99728.81
2019-01-15T08:29:41.318Z,99720.42
2019-01-15T08:32:11.746Z,99721.98
2019-01-15T08:34:42.228Z,99716.21
2019-01-15T08:37:12.659Z,99723.55
2019-01-15T08:39:43.735Z,99722.11
2019-01-15T08:42:14.493Z,99722.23
2019-01-15T08:44:46.005Z,99722.96
2019-01-15T08:47:17.664Z,99723.20
2019-01-15T08:49:48.382Z,99720.31
2019-01-15T08:52:19.085Z,99704.58
2019-01-15T08:54:49.833Z,99716.47
2019-01-15T08:57:20.269Z,99710.94
2019-01-15T08:59:50.757Z,99708.42
2019-01-15T09:02:21.194Z,99714.20
2019-01-15T09:04:51.632Z,99713.23
2019-01-15T09:07:22.106Z,99711.30
2019-01-15T09:09:52.545Z,99715.88
2019-01-15T09:12:23.534Z,99716.83
2019-01-15T09:14:53.965Z,99709.73
2019-01-15T09:17:24.407Z,99711.66
2019-01-15T09:19:54.875Z,99708.55
2019-01-15T09:22:25.485Z,99705.91
2019-01-15T09:24:56.276Z,99706.98
2019-01-15T09:27:26.720Z,99706.60
2019-01-15T09:29:57.183Z,99697.34
2019-01-15T09:32:27.647Z,99695.45
2019-01-15T09:34:58.088Z,99694.81
2019-01-15T09:37:28.565Z,99696.16
2019-01-15T09:39:59.006Z,99697.34
2019-01-15T09:42:29.441Z,99689.30
2019-01-15T09:44:59.983Z,99691.58
2019-01-15T09:47:31.300Z,99684.38
2019-01-15T09:50:02.069Z,99678.10
2019-01-15T09:52:33.152Z,99677.88
2019-01-15T09:55:04.072Z,99677.38
2019-01-15T09:57:34.532Z,99680.27
2019-01-15T10:00:06.129Z,99678.83
2019-01-15T10:02:36.615Z,99686.49
2019-01-15T10:05:07.330Z,99678.79
2019-01-15T10:07:38.055Z,99681.80
2019-01-15T10:10:09.705Z,99677.10
2019-01-15T10:12:40.452Z,99677.59
2019-01-15T10:15:13.226Z,99677.44
2019-01-15T10:17:43.674Z,99667.95
2019-01-15T10:20:15.725Z,99673.35
2019-01-15T10:22:46.783Z,99673.35
2019-01-15T10:25:21.085Z,99675.40
2019-01-15T10:27:52.006Z,99669.02
2019-01-15T10:30:35.114Z,99663.59
2019-01-15T10:33:20.704Z,99669.25
2019-01-15T10:35:53.514Z,99665.64
2019-01-15T10:38:25.055Z,99665.52
2019-01-15T10:40:57.442Z,99661.05
2019-01-15T10:43:29.662Z,99662.02
2019-01-15T10:46:00.159Z,99659.13
2019-01-15T10:48:30.599Z,99658.02
2019-01-15T10:51:01.351Z,99645.64
2019-01-15T10:53:32.080Z,99642.76
2019-01-15T10:56:02.506Z,99638.39
2019-01-15T10:58:33.533Z,99638.86
2019-01-15T11:01:04.666Z,99629.98
2019-01-15T11:03:35.445Z,99626.02
2019-01-15T11:06:05.886Z,99633.92
2019-01-15T11:08:36.618Z,99630.78
2019-01-15T11:15:12.088Z,99621.88
2019-01-15T11:17:42.597Z,99629.78
2019-01-15T11:20:14.867Z,99625.80
2019-01-15T11:22:45.697Z,99619.28
2019-01-15T11:25:16.637Z,99610.80
2019-01-15T11:27:47.112Z,99608.73
2019-01-15T11:30:17.959Z,99614.77
2019-01-15T11:32:49.161Z,99607.19
2019-01-15T11:35:19.620Z,99599.83
2019-01-15T11:37:50.051Z,99604.48
2019-01-15T11:40:20.766Z,99608.45
2019-01-15T11:42:51.992Z,99601.42
2019-01-15T11:45:22.726Z,99596.27
2019-01-15T11:47:53.302Z,99582.05
2019-01-15T11:50:23.911Z,99583.16
2019-01-15T11:52:54.393Z,99581.45
2019-01-15T11:55:24.837Z,99568.53
2019-01-15T11:57:55.840Z,99576.34
2019-01-15T12:00:46.761Z,99568.89
2019-01-15T12:03:28.706Z,99569.25
2019-01-15T12:06:21.119Z,99575.25
2019-01-15T12:09:09.181Z,99569.25
2019-01-15T12:12:01.422Z,99563.16
2019-01-15T12:14:43.156Z,99567.28
2019-01-15T12:17:31.256Z,99562.80
2019-01-15T12:20:29.845Z,99566.28
2019-01-15T12:23:19.514Z,99563.03
2019-01-15T12:26:01.843Z,99554.94
2019-01-15T12:28:57.262Z,99553.37
2019-01-15T12:31:49.376Z,99558.03
2019-01-15T12:34:44.539Z,99541.77
2019-01-15T12:37:46.050Z,99541.53
2019-01-15T12:40:50.341Z,99534.27
2019-01-15T12:43:54.539Z,99534.56
2019-01-15T12:46:49.502Z,99529.32
2019-01-15T12:49:41.606Z,99528.44
2019-01-15T12:52:46.001Z,99522.17
2019-01-15T12:55:38.418Z,99512.11
2019-01-15T12:58:36.789Z,99517.16
2019-01-15T13:01:44.148Z,99495.31
2019-01-15T13:04:27.101Z,99504.06
2019-01-15T13:07:28.349Z,99486.33
2019-01-15T13:10:20.566Z,99487.47
2019-01-15T13:13:10.126Z,99488.73
2019-01-15T13:16:02.700Z,99491.88
2019-01-15T13:18:45.492Z,99487.69
2019-01-15T13:21:23.515Z,99489.80
2019-01-15T13:24:07.605Z,99481.98
2019-01-15T13:27:03.446Z,99488.75
2019-01-15T13:30:05.274Z,99484.49
2019-01-15T13:33:12.999Z,99469.61
2019-01-15T13:36:17.688Z,99485.95
2019-01-15T13:39:14.175Z,99483.45
2019-01-15T13:41:55.021Z,99484.98
2019-01-15T13:44:53.905Z,99483.30
2019-01-15T13:47:49.438Z,99487.03
2019-01-15T13:50:37.609Z,99484.98
2019-01-15T13:53:31.306Z,99473.83
2019-01-15T13:56:26.658Z,99469.14
2019-01-15T13:59:14.997Z,99478.56
2019-01-15T14:02:10.647Z,99465.38
2019-01-15T14:04:58.476Z,99456.56
2019-01-15T14:07:46.662Z,99452.05
2019-01-15T14:10:48.226Z,99458.58
2019-01-15T14:13:43.700Z,99457.26
2019-01-15T14:16:34.930Z,99443.10
2019-01-15T14:19:16.173Z,99450.73
2019-01-15T14:22:03.893Z,99450.02
2019-01-15T14:24:50.493Z,99457.55
2019-01-15T14:27:45.945Z,99464.53
2019-01-15T14:30:41.935Z,99455.17
2019-01-15T14:33:31.325Z,99456.03
2019-01-15T14:36:29.126Z,99458.33
2019-01-15T14:39:33.726Z,99457.06
2019-01-15T14:42:35.046Z,99466.34
2019-01-15T14:45:26.780Z,99458.17
2019-01-15T14:48:14.939Z,99476.48
2019-01-15T14:51:04.300Z,99484.44
2019-01-15T14:54:02.970Z,99469.34
2019-01-15T14:56:52.324Z,99470.82
2019-01-15T14:59:46.199Z,99478.98
2019-01-15T15:02:29.181Z,99462.22
2019-01-15T15:05:33.814Z,99475.01
2019-01-15T15:08:21.945Z,99464.12
2019-01-15T15:11:23.269Z,99463.54
2019-01-15T15:14:22.130Z,99452.87
2019-01-15T15:17:23.620Z,99455.03
2019-01-15T15:20:27.810Z,99450.16
2019-01-15T15:23:26.440Z,99444.50
2019-01-15T15:26:10.650Z,99447.83
2019-01-15T15:28:54.773Z,99446.86
2019-01-15T15:32:02.713Z,99448.12
2019-01-15T15:34:44.877Z,99439.55
2019-01-15T15:37:37.617Z,99435.89
2019-01-15T15:40:21.367Z,99450.38
2019-01-15T15:43:10.765Z,99447.78
2019-01-15T15:46:12.064Z,99439.97
2019-01-15T15:49:08.916Z,99445.95
2019-01-15T15:51:57.422Z,99442.95
2019-01-15T15:54:45.263Z,99444.27
2019-01-15T15:57:40.716Z,99441.00
2019-01-15T16:00:38.920Z,99443.87
2019-01-15T16:03:31.132Z,99442.54
2019-01-15T16:06:12.311Z,99443.75
2019-01-15T16:09:01.962Z,99448.09
2019-01-15T16:11:51.778Z,99436.81
2019-01-15T16:14:59.047Z,99439.76
2019-01-15T16:17:48.461Z,99437.78
2019-01-15T16:20:36.505Z,99441.70
2019-01-15T16:23:24.674Z,99423.69
2019-01-15T16:26:20.015Z,99430.52
2019-01-15T16:29:08.591Z,99432.00
2019-01-15T16:32:01.092Z,99428.29
2019-01-15T16:35:05.701Z,99427.61
2019-01-15T16:38:03.949Z,99434.92
2019-01-15T16:40:47.240Z,99429.27
2019-01-15T16:43:35.026Z,99432.62
2019-01-15T16:46:26.488Z,99431.72
2019-01-15T16:49:18.906Z,99424.81
2019-01-15T16:52:17.023Z,99425.93
2019-01-15T16:55:15.153Z,99403.44
2019-01-15T16:58:19.850Z,99421.66
2019-01-15T17:01:20.833Z,99419.86
2019-01-15T17:04:13.470Z,99422.02
2019-01-15T17:07:02.188Z,99429.62
2019-01-15T17:09:54.451Z,99417.62
2019-01-15T17:12:42.480Z,99423.91
2019-01-15T17:15:44.145Z,99424.88
2019-01-15T17:18:33.433Z,99419.56
2019-01-15T17:21:30.837Z,99422.28
2019-01-15T17:24:18.835Z,99410.70
2019-01-15T17:27:06.877Z,99417.33
2019-01-15T17:29:56.245Z,99421.31
2019-01-15T17:32:49.617Z,99426.34
2019-01-15T17:35:39.308Z,99432.07
2019-01-15T17:38:47.084Z,99427.38
2019-01-15T17:41:35.197Z,99426.91
2019-01-15T17:44:28.276Z,99434.02
2019-01-15T17:47:32.626Z,99426.20
2019-01-15T17:50:20.512Z,99424.73
2019-01-15T17:53:06.024Z,99422.77
2019-01-15T17:55:59.146Z,99426.91
2019-01-15T17:58:46.994Z,99421.52
2019-01-15T18:01:47.222Z,99421.67
2019-01-15T18:04:32.040Z,99430.47
2019-01-15T18:07:20.848Z,99421.80
2019-01-15T18:10:03.912Z,99422.30
2019-01-15T18:13:02.182Z,99434.16
2019-01-15T18:15:52.320Z,99432.01
2019-01-15T18:18:31.266Z,99428.80
2019-01-15T18:21:13.501Z,99435.55
2019-01-15T18:24:09.079Z,99426.91
2019-01-15T18:26:56.646Z,99439.38
2019-01-15T18:29:43.001Z,99442.92
2019-01-15T18:32:50.645Z,99442.78
2019-01-15T18:35:38.772Z,99449.68
2019-01-15T18:38:27.375Z,99443.45
2019-01-15T18:41:22.758Z,99452.94
2019-01-15T18:44:10.957Z,99442.03
2019-01-15T18:46:59.404Z,99446.91
2019-01-15T18:49:52.139Z,99440.03
2019-01-15T18:52:44.010Z,99444.02
2019-01-15T18:55:35.600Z,99446.09
2019-01-15T18:58:28.483Z,99456.42
2019-01-15T19:01:26.716Z,99454.13
2019-01-15T19:04:15.149Z,99452.44
2019-01-15T19:06:59.151Z,99450.29
2019-01-15T19:09:57.737Z,99452.44
2019-01-15T19:12:38.826Z,99446.45
2019-01-15T19:15:28.783Z,99452.17
2019-01-15T19:18:24.841Z,99451.77
2019-01-15T19:21:09.223Z,99454.88
2019-01-15T19:23:57.035Z,99453.30
2019-01-15T19:26:55.407Z,99454.86
2019-01-15T19:29:43.466Z,99457.28
2019-01-15T19:32:31.614Z,99455.95
2019-01-15T19:35:21.165Z,99457.84
2019-01-15T19:38:10.213Z,99454.36
2019-01-15T19:41:02.686Z,99450.88
2019-01-15T19:44:01.760Z,99455.90
2019-01-15T19:46:51.245Z,99459.28
2019-01-15T19:49:38.984Z,99457.75
2019-01-15T19:52:27.333Z,99445.59
2019-01-15T19:55:15.645Z,99459.52
2019-01-15T19:57:57.239Z,99446.91
2019-01-15T20:00:51.326Z,99455.19
2019-01-15T20:03:35.714Z,99451.33
2019-01-15T20:06:24.241Z,99460.59
2019-01-15T20:09:22.075Z,99460.66
2019-01-15T20:12:14.899Z,99466.78
2019-01-15T20:15:04.279Z,99462.95
2019-01-15T20:18:06.067Z,99459.27
2019-01-15T20:20:51.027Z,99464.95
2019-01-15T20:23:39.661Z,99458.84
2019-01-15T20:26:29.087Z,99462.24
2019-01-15T20:29:19.485Z,99465.04
2019-01-15T20:32:07.726Z,99451.71
2019-01-15T20:34:57.108Z,99464.83
2019-01-15T20:37:45.190Z,99466.80
2019-01-15T20:40:31.901Z,99476.30
2019-01-15T20:43:25.710Z,99463.86
2019-01-15T20:46:13.636Z,99463.50
2019-01-15T20:49:10.071Z,99465.90
2019-01-15T20:52:02.509Z,99468.55
2019-01-15T20:54:58.345Z,99474.27
2019-01-15T20:58:00.287Z,99473.77
2019-01-15T21:00:49.020Z,99471.00
2019-01-15T21:03:41.871Z,99474.33
2019-01-15T21:06:37.789Z,99477.84
2019-01-15T21:09:28.488Z,99491.37
2019-01-15T21:12:18.782Z,99481.88
2019-01-15T21:15:20.697Z,99479.49
2019-01-15T21:18:08.547Z,99480.82
2019-01-15T21:21:10.082Z,99477.63
2019-01-15T21:23:58.339Z,99476.02
2019-01-15T21:26:50.457Z,99475.51
2019-01-15T21:29:38.597Z,99479.84
2019-01-15T21:32:40.526Z,99468.94
2019-01-15T21:35:29.028Z,99469.65
2019-01-15T21:38:21.592Z,99483.21
2019-01-15T21:41:13.828Z,99482.92
2019-01-15T21:44:03.192Z,99474.66
2019-01-15T21:46:52.597Z,99468.47
2019-01-15T21:49:39.719Z,99463.72
2019-01-15T21:52:26.230Z,99471.19
2019-01-15T21:55:15.590Z,99465.73
2019-01-15T21:58:04.113Z,99473.69
2019-01-15T22:01:00.975Z,99475.79
2019-01-15T22:03:51.955Z,99474.11
2019-01-15T22:06:39.851Z,99475.44
2019-01-15T22:09:35.935Z,99469.77
2019-01-15T22:12:31.534Z,99479.33
2019-01-15T22:15:14.505Z,99474.31
2019-01-15T22:18:02.306Z,99482.98
2019-01-15T22:20:54.514Z,99478.00
2019-01-15T22:23:46.713Z,99475.49
2019-01-15T22:26:54.885Z,99466.00
2019-01-15T22:29:46.274Z,99463.34
2019-01-15T22:32:38.549Z,99471.52
2019-01-15T22:35:26.734Z,99462.72
2019-01-15T22:38:15.641Z,99459.72
2019-01-15T22:41:16.875Z,99456.23
2019-01-15T22:44:06.277Z,99468.65
2019-01-15T22:46:54.281Z,99469.23
2019-01-15T22:49:47.066Z,99473.42
2019-01-15T22:52:39.520Z,99468.61
2019-01-15T22:55:34.784Z,99468.26
2019-01-15T22:58:14.673Z,99469.73
2019-01-15T23:01:04.211Z,99471.88
2019-01-15T23:03:53.179Z,99467.76
2019-01-15T23:06:40.553Z,99474.69
2019-01-15T23:09:29.256Z,99470.56
2019-01-15T23:12:17.444Z,99471.32
2019-01-15T23:15:01.799Z,99469.99
2019-01-15T23:17:51.208Z,99475.51
2019-01-15T23:20:39.065Z,99473.21
2019-01-15T23:23:28.555Z,99472.59
2019-01-15T23:26:16.301Z,99461.98
2019-01-15T23:28:57.761Z,99460.50
2019-01-15T23:31:47.123Z,99463.16
2019-01-15T23:34:40.144Z,99463.16
2019-01-15T23:37:27.916Z,99457.70
2019-01-15T23:40:16.009Z,99457.70
2019-01-15T23:43:17.524Z,99456.31
2019-01-15T23:46:06.927Z,99458.53
2019-01-15T23:48:54.694Z,99451.22
2019-01-15T23:51:50.210Z,99460.98
2019-01-15T23:54:42.061Z,99469.08
2019-01-15T23:57:37.283Z,99464.63
